Terminal Aerodrome Forecast
Issued by NWS

Home | Current Version | Previous Version | Text Only | Print | Product List | Glossary On
Versions: 1 2 3 4 5 6 7 8 9 10 11 12 13 14 15 16 17 18 19 20
000
FTUS44 KCRP 180535
TAFALI
TAF
KALI 180535Z 1806/1906 17009KT P6SM FEW012
     FM180900 18007KT P6SM FEW006 SCT012
      TEMPO 1809/1813 5SM BR BKN012
     FM181500 21007KT P6SM FEW008 SCT015
     FM182100 36013KT P6SM SCT050
     FM190100 36017G25KT P6SM SKC=

USA.gov is the U.S. government's official web portal to all federal, state and local government web resources and services.